Time;durP1;ratioP1;P1;durP2;ratioP2;P2;SDS_P1;SDS_P2;PMS_P1;PMS_P2;Temp;Humidity;BMP_temperature;BMP_pressure;BME280_temperature;BME280_humidity;BME280_pressure;Samples;Min_cycle;Max_cycle;Signal;HPM_P1;HPM_P2
2023/01/08 00:01:24;;;;;;;25.25;14.18;;;4.30;99.90;;;;;;5036276;28;20498;-70
2023/01/08 00:03:49;;;;;;;25.25;13.35;;;4.30;99.90;;;;;;5033873;28;20384;-70
2023/01/08 00:06:17;;;;;;;25.58;15.27;;;4.30;99.90;;;;;;5037374;28;20033;-70
2023/01/08 00:08:43;;;;;;;24.63;15.32;;;4.40;99.90;;;;;;5039255;28;20746;-70
2023/01/08 00:11:10;;;;;;;24.58;14.25;;;4.50;99.90;;;;;;5038536;28;20376;-70
2023/01/08 00:13:36;;;;;;;22.02;13.07;;;4.40;99.90;;;;;;5038455;28;20037;-70
2023/01/08 00:16:03;;;;;;;21.08;13.27;;;4.30;99.90;;;;;;5040472;28;20034;-70
2023/01/08 00:18:29;;;;;;;22.13;13.32;;;4.20;99.90;;;;;;5040992;28;20033;-70
2023/01/08 00:20:54;;;;;;;22.80;13.70;;;4.30;99.90;;;;;;5038847;28;20507;-70
2023/01/08 00:23:20;;;;;;;22.88;12.88;;;4.20;99.90;;;;;;5039811;28;20025;-70
2023/01/08 00:25:46;;;;;;;21.27;12.63;;;4.20;99.90;;;;;;5039599;28;20037;-70
2023/01/08 00:28:13;;;;;;;20.83;12.32;;;4.20;99.90;;;;;;5039662;28;20025;-70
2023/01/08 00:30:39;;;;;;;21.75;13.07;;;4.20;99.90;;;;;;5041695;28;20022;-70
2023/01/08 00:33:05;;;;;;;18.90;12.52;;;4.10;99.90;;;;;;5040152;28;20037;-70
2023/01/08 00:35:31;;;;;;;23.75;12.98;;;4.00;99.90;;;;;;5037841;28;20112;-70
2023/01/08 00:37:56;;;;;;;20.25;13.35;;;3.90;99.90;;;;;;5042845;28;20032;-70
2023/01/08 00:40:22;;;;;;;22.42;13.30;;;3.80;99.90;;;;;;5039059;28;20025;-70
2023/01/08 00:42:47;;;;;;;21.98;13.63;;;3.90;99.90;;;;;;5041687;28;20088;-70
2023/01/08 00:45:13;;;;;;;21.65;14.45;;;4.00;99.90;;;;;;5037216;28;20029;-70
2023/01/08 00:47:39;;;;;;;24.25;14.77;;;3.90;99.90;;;;;;5041790;28;20090;-70
2023/01/08 00:50:05;;;;;;;21.60;13.50;;;3.90;99.90;;;;;;5042381;28;20039;-70
2023/01/08 00:52:31;;;;;;;20.83;12.05;;;3.90;99.90;;;;;;5039199;28;20030;-70
2023/01/08 00:54:57;;;;;;;23.45;13.10;;;4.00;99.90;;;;;;5043529;28;20503;-70
2023/01/08 00:57:22;;;;;;;25.05;13.15;;;4.10;99.90;;;;;;5042077;28;20029;-70
2023/01/08 00:59:48;;;;;;;23.33;13.68;;;4.20;99.90;;;;;;5038995;28;20029;-70
2023/01/08 01:02:14;;;;;;;24.23;13.25;;;4.10;99.90;;;;;;5042019;28;20029;-70
2023/01/08 01:04:39;;;;;;;20.25;12.13;;;4.20;99.90;;;;;;5039422;28;20032;-70
2023/01/08 01:07:05;;;;;;;22.10;12.68;;;4.10;99.90;;;;;;5036691;28;20386;-70
2023/01/08 01:09:30;;;;;;;18.67;12.57;;;4.00;99.90;;;;;;5038843;28;20037;-70
2023/01/08 01:11:56;;;;;;;20.63;12.07;;;4.00;99.90;;;;;;5040584;28;20036;-70
2023/01/08 01:14:22;;;;;;;23.35;12.75;;;4.00;99.90;;;;;;5038547;28;20411;-70
2023/01/08 01:16:48;;;;;;;21.77;13.35;;;4.10;99.90;;;;;;5039630;28;20116;-70
2023/01/08 01:19:17;;;;;;;18.30;11.48;;;4.10;99.90;;;;;;5044394;28;20426;-70
2023/01/08 01:21:43;;;;;;;17.60;11.70;;;4.10;99.90;;;;;;5045576;28;20086;-70
2023/01/08 01:24:11;;;;;;;19.80;11.75;;;4.20;99.90;;;;;;5044401;28;20505;-70
2023/01/08 01:26:38;;;;;;;19.95;12.20;;;4.20;99.90;;;;;;5045926;28;20510;-70
2023/01/08 01:29:04;;;;;;;20.55;11.73;;;4.10;99.90;;;;;;5046804;28;20025;-70
2023/01/08 01:31:30;;;;;;;19.45;11.13;;;4.10;99.90;;;;;;5045399;28;20387;-70
2023/01/08 01:33:56;;;;;;;21.75;11.15;;;4.10;99.90;;;;;;5043355;28;20491;-70
2023/01/08 01:36:22;;;;;;;17.65;10.45;;;4.20;99.90;;;;;;5047227;28;20035;-70
2023/01/08 01:38:50;;;;;;;20.02;11.13;;;4.20;99.90;;;;;;5044018;28;20843;-70
2023/01/08 01:41:40;;;;;;;19.08;11.25;;;4.10;99.90;;;;;;5044898;28;20036;-70
2023/01/08 01:44:34;;;;;;;19.73;9.77;;;4.10;99.90;;;;;;5042565;28;20041;-70
2023/01/08 01:47:04;;;;;;;16.67;10.27;;;4.00;99.90;;;;;;5046977;28;20387;-70
2023/01/08 01:49:31;;;;;;;18.40;10.00;;;3.90;99.90;;;;;;5044644;28;20033;-70
2023/01/08 01:52:01;;;;;;;21.13;10.70;;;3.80;99.90;;;;;;5045565;28;20150;-70
2023/01/08 01:54:28;;;;;;;20.08;11.38;;;3.90;99.90;;;;;;5045109;28;20455;-70
2023/01/08 01:56:55;;;;;;;23.08;12.93;;;4.00;99.90;;;;;;5041930;28;20033;-70
2023/01/08 01:59:21;;;;;;;23.90;12.23;;;4.10;99.90;;;;;;5041750;28;20036;-70
2023/01/08 02:01:47;;;;;;;18.50;11.85;;;4.20;99.90;;;;;;5044746;28;20092;-70
2023/01/08 02:04:13;;;;;;;19.38;11.38;;;4.20;99.90;;;;;;5042973;28;20037;-70
2023/01/08 02:07:17;;;;;;;18.00;11.05;;;4.10;99.90;;;;;;5042617;28;20441;-70
2023/01/08 02:09:50;;;;;;;15.80;9.88;;;4.00;99.90;;;;;;5041681;28;20033;-70
2023/01/08 02:12:41;;;;;;;17.03;11.13;;;3.90;99.90;;;;;;5045289;28;20060;-70
2023/01/08 02:15:20;;;;;;;18.67;10.65;;;3.80;99.90;;;;;;5042541;28;20040;-70
2023/01/08 02:18:08;;;;;;;17.73;11.30;;;3.80;99.90;;;;;;5043305;28;20025;-70
2023/01/08 02:20:41;;;;;;;17.52;11.30;;;3.80;99.90;;;;;;5041341;28;20028;-70
2023/01/08 02:23:19;;;;;;;21.63;12.32;;;3.80;99.90;;;;;;5044182;28;20041;-70
2023/01/08 02:26:04;;;;;;;20.85;11.73;;;3.80;99.90;;;;;;5043142;28;20037;-70
2023/01/08 02:28:50;;;;;;;17.02;11.00;;;3.90;99.90;;;;;;5041366;28;20028;-70
2023/01/08 02:31:17;;;;;;;20.58;11.38;;;3.90;99.90;;;;;;5042594;28;20031;-70
2023/01/08 02:33:43;;;;;;;18.30;11.95;;;3.90;99.90;;;;;;5038821;28;20033;-70
2023/01/08 02:36:11;;;;;;;18.63;10.07;;;3.80;99.90;;;;;;5042128;28;20491;-70
2023/01/08 02:38:51;;;;;;;17.40;10.70;;;3.80;99.90;;;;;;5044156;28;20107;-70
2023/01/08 02:41:20;;;;;;;18.23;10.38;;;3.80;99.90;;;;;;5043589;28;20027;-70
2023/01/08 02:43:50;;;;;;;16.10;11.00;;;3.50;99.90;;;;;;5042023;28;20478;-70
2023/01/08 02:46:25;;;;;;;23.20;12.05;;;3.60;99.90;;;;;;5044492;28;20116;-70
2023/01/08 02:48:55;;;;;;;17.80;10.40;;;3.70;99.90;;;;;;5042740;28;20083;-70
2023/01/08 02:51:39;;;;;;;20.63;12.60;;;3.70;99.90;;;;;;5041243;28;20029;-70
2023/01/08 02:54:10;;;;;;;23.30;12.63;;;3.70;99.90;;;;;;5042926;28;20439;-70
2023/01/08 02:56:41;;;;;;;22.00;12.88;;;3.70;99.90;;;;;;5040466;28;20025;-70
2023/01/08 02:59:09;;;;;;;23.30;12.60;;;3.70;99.90;;;;;;5046230;28;20040;-70
2023/01/08 03:01:37;;;;;;;20.10;12.98;;;3.70;99.90;;;;;;5043134;28;20024;-69
2023/01/08 03:04:11;;;;;;;18.83;11.88;;;3.80;99.90;;;;;;5042662;28;20111;-69
2023/01/08 03:06:37;;;;;;;24.52;16.65;;;3.80;99.90;;;;;;5044962;28;20021;-69
2023/01/08 03:09:05;;;;;;;25.10;16.08;;;3.70;99.90;;;;;;5043211;28;20040;-69
2023/01/08 03:11:42;;;;;;;22.40;13.52;;;3.70;99.90;;;;;;5042143;28;20477;-69
2023/01/08 03:14:25;;;;;;;19.33;11.48;;;3.70;99.90;;;;;;5042632;28;20045;-69
2023/01/08 03:17:05;;;;;;;20.88;12.30;;;3.70;99.90;;;;;;5040508;28;20051;-69
2023/01/08 03:19:40;;;;;;;20.30;11.50;;;3.60;99.90;;;;;;5040579;28;20360;-69
2023/01/08 03:22:13;;;;;;;23.80;11.13;;;3.50;99.90;;;;;;5040273;28;20401;-69
2023/01/08 03:24:41;;;;;;;20.25;12.85;;;3.50;99.90;;;;;;5042541;28;20029;-69
2023/01/08 03:27:12;;;;;;;17.70;10.18;;;3.40;99.90;;;;;;5039262;28;20476;-69
2023/01/08 03:29:39;;;;;;;20.48;10.80;;;3.20;99.90;;;;;;5039576;28;20364;-69
2023/01/08 03:32:10;;;;;;;19.08;11.40;;;3.20;99.90;;;;;;5042782;28;20032;-69
2023/01/08 03:34:38;;;;;;;19.60;12.40;;;3.20;99.90;;;;;;5040755;28;20041;-69
2023/01/08 03:37:06;;;;;;;18.95;11.15;;;3.20;99.90;;;;;;5038497;28;20079;-69
2023/01/08 03:39:42;;;;;;;20.05;12.15;;;3.20;99.90;;;;;;5044504;28;20060;-69
2023/01/08 03:42:11;;;;;;;18.88;11.18;;;3.20;99.90;;;;;;5042261;28;20029;-69
2023/01/08 03:44:36;;;;;;;18.73;10.07;;;3.20;99.90;;;;;;5038215;28;20068;-69
2023/01/08 03:47:04;;;;;;;14.43;8.50;;;3.20;99.90;;;;;;5073699;28;20498;-69
2023/01/08 03:49:30;;;;;;;14.93;9.82;;;3.20;99.90;;;;;;5042416;28;20033;-69
2023/01/08 03:51:55;;;;;;;15.52;9.68;;;3.20;99.90;;;;;;5039320;28;20032;-69
2023/01/08 03:54:30;;;;;;;19.38;10.88;;;3.20;99.90;;;;;;5041642;28;20037;-69
2023/01/08 03:56:55;;;;;;;25.88;13.50;;;3.20;99.90;;;;;;5039032;28;20040;-69
2023/01/08 03:59:21;;;;;;;22.90;11.55;;;3.30;99.90;;;;;;5042263;28;20108;-69
2023/01/08 04:01:47;;;;;;;21.50;12.82;;;3.40;99.90;;;;;;5037751;28;20032;-70
2023/01/08 04:04:13;;;;;;;21.38;12.45;;;3.40;99.90;;;;;;5039066;28;20119;-70
2023/01/08 04:06:38;;;;;;;19.65;11.82;;;3.30;99.90;;;;;;5034303;28;20045;-70
2023/01/08 04:09:04;;;;;;;18.60;11.30;;;3.30;99.90;;;;;;5037942;28;20713;-70
2023/01/08 04:11:30;;;;;;;21.92;10.93;;;3.20;99.90;;;;;;5038562;28;20082;-70
2023/01/08 04:13:56;;;;;;;19.95;11.10;;;3.20;99.90;;;;;;5036951;28;20041;-70
2023/01/08 04:16:22;;;;;;;18.55;11.48;;;3.20;99.90;;;;;;5036987;28;20025;-70
2023/01/08 04:18:47;;;;;;;19.65;11.32;;;3.20;99.90;;;;;;5031995;28;20052;-70
2023/01/08 04:21:13;;;;;;;19.05;10.90;;;3.30;99.90;;;;;;5032872;28;20053;-70
2023/01/08 04:23:39;;;;;;;19.73;11.73;;;3.30;99.90;;;;;;5037611;28;20516;-70
2023/01/08 04:26:06;;;;;;;18.90;11.98;;;3.30;99.90;;;;;;5036244;28;20036;-70
2023/01/08 04:28:32;;;;;;;21.88;12.13;;;3.40;99.90;;;;;;5038090;28;20082;-70
2023/01/08 04:30:57;;;;;;;22.10;12.27;;;3.50;99.90;;;;;;5037126;28;20045;-70
2023/01/08 04:33:24;;;;;;;20.23;11.63;;;3.50;99.90;;;;;;5038146;28;20463;-70
2023/01/08 04:35:50;;;;;;;18.77;10.70;;;3.40;99.90;;;;;;5036495;28;20078;-70
2023/01/08 04:38:16;;;;;;;21.52;11.20;;;3.30;99.90;;;;;;5033911;28;20036;-70
2023/01/08 04:40:41;;;;;;;18.77;10.80;;;3.30;99.90;;;;;;5031338;28;20029;-70
2023/01/08 04:43:07;;;;;;;19.35;11.20;;;3.40;99.90;;;;;;5033556;28;20034;-70
2023/01/08 04:45:33;;;;;;;23.27;12.40;;;3.50;99.90;;;;;;5034296;28;20101;-70
2023/01/08 04:47:59;;;;;;;19.00;11.57;;;3.50;99.90;;;;;;5033893;28;20053;-70
2023/01/08 04:50:26;;;;;;;18.60;11.20;;;3.40;99.90;;;;;;5036237;28;20029;-70
2023/01/08 04:52:52;;;;;;;22.15;11.55;;;3.40;99.90;;;;;;5035696;28;20032;-70
2023/01/08 04:55:18;;;;;;;20.77;11.88;;;3.40;99.90;;;;;;5034992;28;20115;-70
2023/01/08 04:57:44;;;;;;;18.08;11.52;;;3.40;99.90;;;;;;5036088;28;20101;-70
2023/01/08 05:00:10;;;;;;;19.67;10.77;;;3.30;99.90;;;;;;5035991;28;20103;-70
2023/01/08 05:02:36;;;;;;;18.08;11.32;;;3.00;99.90;;;;;;5033770;28;20063;-70
2023/01/08 05:05:01;;;;;;;16.05;10.07;;;3.00;99.90;;;;;;5034308;28;20432;-70
2023/01/08 05:07:27;;;;;;;16.95;10.98;;;3.20;99.90;;;;;;5038854;28;20517;-70
2023/01/08 05:09:53;;;;;;;20.50;10.15;;;3.20;99.90;;;;;;5035538;28;20029;-70
2023/01/08 05:12:18;;;;;;;21.25;11.18;;;3.20;99.90;;;;;;5035884;28;20490;-70
2023/01/08 05:14:44;;;;;;;20.00;11.68;;;3.10;99.90;;;;;;5035339;28;20033;-70
2023/01/08 05:17:10;;;;;;;18.35;11.43;;;3.20;99.90;;;;;;5035561;28;20483;-70
2023/01/08 05:19:35;;;;;;;19.13;11.35;;;3.10;99.90;;;;;;5034201;28;20066;-70
2023/01/08 05:22:01;;;;;;;18.83;11.18;;;3.10;99.90;;;;;;5036418;28;20064;-70
2023/01/08 05:24:27;;;;;;;22.63;12.93;;;3.10;99.90;;;;;;5039328;28;20060;-70
2023/01/08 05:26:52;;;;;;;24.73;12.32;;;3.20;99.90;;;;;;5033591;28;20033;-70
2023/01/08 05:29:18;;;;;;;24.95;12.48;;;3.30;99.90;;;;;;5034454;28;20449;-70
2023/01/08 05:31:44;;;;;;;20.33;12.40;;;3.20;99.90;;;;;;5036122;28;20142;-70
2023/01/08 05:34:10;;;;;;;22.05;12.23;;;3.20;99.90;;;;;;5035193;28;20108;-70
2023/01/08 05:36:36;;;;;;;22.13;11.63;;;3.20;99.90;;;;;;5028922;28;20034;-70
2023/01/08 05:39:02;;;;;;;19.83;11.80;;;3.20;99.90;;;;;;5035613;28;20373;-70
2023/01/08 05:41:27;;;;;;;26.35;12.40;;;3.20;99.90;;;;;;5035471;28;20079;-70
2023/01/08 05:43:53;;;;;;;21.80;11.52;;;3.20;99.90;;;;;;5065991;28;20363;-70
2023/01/08 05:46:19;;;;;;;21.20;13.15;;;3.10;99.90;;;;;;5035575;28;20038;-70
2023/01/08 05:48:44;;;;;;;22.13;13.77;;;3.30;99.90;;;;;;5038810;28;20619;-70
2023/01/08 05:51:10;;;;;;;21.35;13.10;;;3.30;99.90;;;;;;5035546;28;20041;-70
2023/01/08 05:53:36;;;;;;;21.52;11.98;;;3.40;99.90;;;;;;5037783;28;20140;-70
2023/01/08 05:56:04;;;;;;;24.35;12.88;;;3.40;99.90;;;;;;5037241;28;20112;-70
2023/01/08 05:58:30;;;;;;;25.83;12.07;;;3.40;99.90;;;;;;5029833;28;20032;-70
2023/01/08 06:01:15;;;;;;;23.75;13.93;;;3.30;99.90;;;;;;5034228;28;20082;-70
2023/01/08 06:03:40;;;;;;;26.70;13.05;;;3.40;99.90;;;;;;5038163;28;20029;-70
2023/01/08 06:06:07;;;;;;;22.50;13.88;;;3.40;99.90;;;;;;5036116;28;20029;-70
2023/01/08 06:08:33;;;;;;;21.17;12.40;;;3.30;99.90;;;;;;5040269;28;20352;-70
2023/01/08 06:11:01;;;;;;;22.23;12.95;;;3.40;99.90;;;;;;5034497;28;20029;-70
2023/01/08 06:13:27;;;;;;;20.45;11.65;;;3.40;99.90;;;;;;5037626;28;20025;-70
2023/01/08 06:15:53;;;;;;;21.10;13.27;;;3.30;99.90;;;;;;5036727;28;20108;-70
2023/01/08 06:18:18;;;;;;;24.95;13.27;;;3.30;99.90;;;;;;5067254;28;20120;-70
2023/01/08 06:20:44;;;;;;;27.00;14.70;;;3.20;99.90;;;;;;5036254;28;20056;-70
2023/01/08 06:23:10;;;;;;;27.33;14.13;;;3.20;99.90;;;;;;5032600;28;20675;-70
2023/01/08 06:25:36;;;;;;;26.55;16.00;;;3.30;99.90;;;;;;5037856;28;20027;-70
2023/01/08 06:28:02;;;;;;;25.10;14.43;;;3.50;99.90;;;;;;5035908;28;20037;-70
2023/01/08 06:30:28;;;;;;;23.52;13.27;;;3.50;99.90;;;;;;5033491;28;20037;-70
2023/01/08 06:32:58;;;;;;;23.23;12.98;;;3.60;99.90;;;;;;5035147;28;20033;-70
2023/01/08 06:35:24;;;;;;;23.13;13.50;;;3.50;99.90;;;;;;5034466;28;20041;-70
2023/01/08 06:37:50;;;;;;;24.42;13.68;;;3.50;99.90;;;;;;5035901;28;20029;-70
2023/01/08 06:40:16;;;;;;;22.77;12.93;;;3.50;99.90;;;;;;5037049;28;20030;-70
2023/01/08 06:42:43;;;;;;;27.20;14.38;;;3.50;99.90;;;;;;5035393;28;20035;-70
2023/01/08 06:45:09;;;;;;;23.25;14.25;;;3.50;99.90;;;;;;5034221;28;20132;-70
2023/01/08 06:47:35;;;;;;;39.50;32.67;;;3.50;99.90;;;;;;5038226;28;20039;-70
2023/01/08 06:50:01;;;;;;;28.75;19.02;;;3.40;99.90;;;;;;5034220;28;20025;-70
2023/01/08 06:52:27;;;;;;;23.13;15.05;;;3.40;99.90;;;;;;5034091;28;20029;-70
2023/01/08 06:54:53;;;;;;;20.20;12.25;;;3.40;99.90;;;;;;5035297;28;20040;-70
2023/01/08 06:57:18;;;;;;;25.98;14.57;;;3.40;99.90;;;;;;5034692;28;20045;-70
2023/01/08 06:59:44;;;;;;;22.60;14.10;;;3.40;99.90;;;;;;5031643;28;20029;-70
2023/01/08 07:02:14;;;;;;;22.13;13.65;;;3.40;99.90;;;;;;5036700;28;20041;-70
2023/01/08 07:04:39;;;;;;;22.17;13.15;;;3.30;99.90;;;;;;5035422;28;20671;-70
2023/01/08 07:07:05;;;;;;;20.52;13.15;;;3.40;99.90;;;;;;5037307;28;20057;-71
2023/01/08 07:09:33;;;;;;;21.83;13.32;;;3.50;99.90;;;;;;5034625;28;20050;-71
2023/01/08 07:11:59;;;;;;;27.23;12.85;;;3.50;99.90;;;;;;5037774;28;20513;-71
2023/01/08 07:14:24;;;;;;;25.88;14.07;;;3.40;99.90;;;;;;5038576;28;20154;-71
2023/01/08 07:16:50;;;;;;;25.17;13.48;;;3.40;99.90;;;;;;5036978;28;20048;-70
2023/01/08 07:19:16;;;;;;;23.85;14.10;;;3.40;99.90;;;;;;5033088;28;20910;-70
2023/01/08 07:21:41;;;;;;;28.48;13.68;;;3.40;99.90;;;;;;5034276;28;20045;-70
2023/01/08 07:24:07;;;;;;;22.52;12.55;;;3.40;99.90;;;;;;5032242;28;20561;-70
2023/01/08 07:26:33;;;;;;;19.83;12.27;;;3.40;99.90;;;;;;5029627;28;20056;-70
2023/01/08 07:28:59;;;;;;;21.25;11.20;;;3.30;99.90;;;;;;5036037;28;20037;-70
2023/01/08 07:31:25;;;;;;;17.83;10.98;;;3.20;99.90;;;;;;5030980;28;20044;-70
2023/01/08 07:33:51;;;;;;;21.88;12.65;;;3.30;99.90;;;;;;5036809;28;20029;-70
2023/01/08 07:36:21;;;;;;;22.20;12.68;;;3.30;99.90;;;;;;5031076;28;20120;-70
2023/01/08 07:38:48;;;;;;;24.60;13.38;;;3.40;99.90;;;;;;5033491;28;20079;-70
2023/01/08 07:41:14;;;;;;;20.38;13.15;;;3.30;99.90;;;;;;5032141;28;20120;-70
2023/01/08 07:43:39;;;;;;;22.08;12.57;;;3.50;99.90;;;;;;5031740;28;20116;-70
2023/01/08 07:46:05;;;;;;;20.20;11.98;;;3.50;99.90;;;;;;5034816;28;20060;-70
2023/01/08 07:48:31;;;;;;;18.70;12.77;;;3.40;99.90;;;;;;5030265;28;20150;-70
2023/01/08 07:51:01;;;;;;;21.05;12.75;;;3.40;99.90;;;;;;5034547;28;20075;-70
2023/01/08 07:53:27;;;;;;;22.88;13.80;;;3.40;99.90;;;;;;5036378;28;20025;-70
2023/01/08 07:56:01;;;;;;;21.17;13.85;;;3.50;99.90;;;;;;5035845;28;20637;-70
2023/01/08 07:58:27;;;;;;;18.80;11.52;;;3.60;99.90;;;;;;5031253;28;20033;-70
2023/01/08 08:00:53;;;;;;;19.08;10.55;;;3.50;99.90;;;;;;5032540;28;20039;-70
2023/01/08 08:03:18;;;;;;;21.83;13.20;;;3.50;99.90;;;;;;5033723;28;20387;-70
2023/01/08 08:05:44;;;;;;;25.88;15.10;;;3.70;99.90;;;;;;5032611;28;20032;-70
2023/01/08 08:08:11;;;;;;;21.92;13.93;;;3.80;99.90;;;;;;5029611;28;20093;-70
2023/01/08 08:10:38;;;;;;;26.90;17.08;;;3.80;99.90;;;;;;5032961;28;20037;-70
2023/01/08 08:13:04;;;;;;;26.15;17.75;;;3.70;99.90;;;;;;5030779;28;20033;-70
2023/01/08 08:15:30;;;;;;;23.90;14.63;;;3.60;99.90;;;;;;5034754;28;20076;-70
2023/01/08 08:17:55;;;;;;;18.20;11.63;;;3.70;99.90;;;;;;5031110;28;20065;-70
2023/01/08 08:20:21;;;;;;;20.80;13.07;;;3.80;99.90;;;;;;5035203;28;20475;-70
2023/01/08 08:22:47;;;;;;;19.55;11.80;;;3.80;99.90;;;;;;5033459;28;20053;-70
2023/01/08 08:25:15;;;;;;;21.30;11.88;;;3.80;99.90;;;;;;5031055;28;20037;-70
2023/01/08 08:27:42;;;;;;;23.52;12.27;;;3.80;99.90;;;;;;5032632;28;20109;-70
2023/01/08 08:30:08;;;;;;;20.27;11.13;;;3.90;99.90;;;;;;5033609;28;20025;-70
2023/01/08 08:32:34;;;;;;;17.30;10.90;;;3.70;99.90;;;;;;5037319;28;20714;-71
2023/01/08 08:35:01;;;;;;;16.75;10.77;;;3.70;99.90;;;;;;5042561;28;20060;-71
2023/01/08 08:37:26;;;;;;;23.02;12.30;;;3.60;99.90;;;;;;5035951;28;20021;-70
2023/01/08 08:39:52;;;;;;;18.13;10.43;;;3.60;99.90;;;;;;5036699;28;20032;-70
2023/01/08 08:42:18;;;;;;;35.67;23.38;;;3.50;99.90;;;;;;5037387;28;20041;-70
2023/01/08 08:44:43;;;;;;;21.98;14.73;;;3.50;99.90;;;;;;5035029;28;20095;-71
2023/01/08 08:47:09;;;;;;;35.72;22.23;;;3.70;99.90;;;;;;5036152;28;20032;-71
2023/01/08 08:49:35;;;;;;;22.08;14.48;;;3.70;99.90;;;;;;5034255;28;20112;-71
2023/01/08 08:52:01;;;;;;;23.55;12.73;;;3.60;99.90;;;;;;5034702;28;20116;-71
2023/01/08 08:54:27;;;;;;;19.75;12.18;;;3.60;99.90;;;;;;5037404;28;20041;-71
2023/01/08 08:56:53;;;;;;;22.20;13.07;;;3.60;99.90;;;;;;5031881;28;20078;-71
2023/01/08 08:59:19;;;;;;;40.75;22.70;;;3.70;99.90;;;;;;5036567;28;20032;-73
2023/01/08 09:01:44;;;;;;;35.47;20.90;;;3.80;99.90;;;;;;5036742;28;20029;-72
2023/01/08 09:04:10;;;;;;;22.60;12.73;;;3.80;99.90;;;;;;5030409;28;20090;-72
2023/01/08 09:06:36;;;;;;;19.33;11.77;;;3.80;99.90;;;;;;5041619;28;20127;-73
2023/01/08 09:09:02;;;;;;;21.20;13.32;;;3.90;99.90;;;;;;5037646;28;20103;-73
2023/01/08 09:11:28;;;;;;;21.23;13.48;;;3.90;99.90;;;;;;5039591;28;20040;-71
2023/01/08 09:13:53;;;;;;;21.10;12.00;;;4.00;99.90;;;;;;5042162;28;20360;-71
2023/01/08 09:16:19;;;;;;;22.85;12.32;;;4.10;99.90;;;;;;5034735;28;20059;-71
2023/01/08 09:18:45;;;;;;;19.17;11.25;;;4.20;99.90;;;;;;5040671;28;20029;-71
2023/01/08 09:21:11;;;;;;;19.88;12.35;;;4.10;99.90;;;;;;5032304;28;20052;-71
2023/01/08 09:23:37;;;;;;;18.88;11.27;;;4.20;99.90;;;;;;5039466;28;20029;-71
2023/01/08 09:26:04;;;;;;;20.05;11.70;;;4.30;99.90;;;;;;5036512;28;20028;-71
2023/01/08 09:28:31;;;;;;;24.67;14.18;;;4.20;99.90;;;;;;5036493;28;20105;-71
2023/01/08 09:31:03;;;;;;;22.08;13.40;;;4.30;99.90;;;;;;5029431;28;20025;-71
2023/01/08 09:33:29;;;;;;;20.95;13.98;;;4.40;99.90;;;;;;5037658;28;20070;-71
2023/01/08 09:35:55;;;;;;;22.50;13.05;;;4.50;99.90;;;;;;5033295;28;20037;-71
2023/01/08 09:38:21;;;;;;;20.05;11.70;;;4.50;99.90;;;;;;5036704;28;20036;-71
2023/01/08 09:40:58;;;;;;;19.60;11.50;;;4.60;99.90;;;;;;5029552;28;20029;-70
2023/01/08 09:43:27;;;;;;;21.52;14.30;;;4.60;99.90;;;;;;5037485;28;20025;-71
2023/01/08 09:45:56;;;;;;;20.88;12.35;;;5.00;99.90;;;;;;5046492;28;20029;-72
2023/01/08 09:48:26;;;;;;;19.42;12.15;;;4.90;99.90;;;;;;5037681;28;20684;-72
2023/01/08 09:50:52;;;;;;;20.83;12.25;;;4.90;99.90;;;;;;5041793;28;20503;-72
2023/01/08 09:53:18;;;;;;;22.45;12.25;;;4.90;99.90;;;;;;5049391;28;20166;-72
2023/01/08 09:55:57;;;;;;;20.85;13.25;;;5.00;99.90;;;;;;5045641;28;20529;-73
2023/01/08 09:58:34;;;;;;;18.80;14.00;;;4.90;99.90;;;;;;5040375;28;20398;-73
2023/01/08 10:01:02;;;;;;;24.75;13.80;;;5.10;99.90;;;;;;5049582;28;20025;-72
2023/01/08 10:03:48;;;;;;;20.52;12.70;;;5.20;99.90;;;;;;5050725;28;20509;-72
2023/01/08 10:06:15;;;;;;;21.65;12.27;;;5.10;99.90;;;;;;5050514;28;20426;-72
2023/01/08 10:08:41;;;;;;;19.33;11.80;;;5.10;99.90;;;;;;5050358;28;20386;-72
2023/01/08 10:11:09;;;;;;;17.08;11.18;;;4.90;99.90;;;;;;5050251;28;20029;-72
2023/01/08 10:13:38;;;;;;;22.42;13.88;;;4.90;99.90;;;;;;5043893;28;20048;-72
2023/01/08 10:16:08;;;;;;;21.67;14.20;;;4.90;99.90;;;;;;5037034;28;20086;-73
2023/01/08 10:18:34;;;;;;;22.52;11.80;;;5.00;99.90;;;;;;5030624;28;20026;-72
2023/01/08 10:21:00;;;;;;;18.63;12.20;;;5.10;99.90;;;;;;5033352;28;20120;-73
2023/01/08 10:23:25;;;;;;;20.63;11.63;;;5.00;99.90;;;;;;5050478;28;20493;-72
2023/01/08 10:25:51;;;;;;;20.45;11.43;;;4.70;99.90;;;;;;5048123;28;20581;-73
2023/01/08 10:28:27;;;;;;;16.92;10.80;;;4.70;99.90;;;;;;5032150;28;20396;-72
2023/01/08 10:30:58;;;;;;;20.05;12.13;;;4.80;99.90;;;;;;5045050;28;20036;-73
2023/01/08 10:33:42;;;;;;;20.80;11.48;;;5.00;99.90;;;;;;5048883;28;20029;-73
2023/01/08 10:36:12;;;;;;;17.73;10.85;;;5.10;99.90;;;;;;5038013;28;20033;-73
2023/01/08 10:38:47;;;;;;;16.60;10.55;;;5.00;99.90;;;;;;5030198;28;20029;-72
2023/01/08 10:41:13;;;;;;;21.73;12.05;;;4.90;99.90;;;;;;5029344;28;20033;-72
2023/01/08 10:43:54;;;;;;;22.13;12.30;;;5.00;99.90;;;;;;5029961;28;20025;-73
2023/01/08 10:46:29;;;;;;;20.60;13.05;;;5.00;99.90;;;;;;5035080;28;20029;-72
2023/01/08 10:48:59;;;;;;;19.92;12.27;;;5.00;99.90;;;;;;5047699;28;20383;-73
2023/01/08 10:51:28;;;;;;;35.42;22.88;;;4.90;99.90;;;;;;5046662;28;20027;-73
2023/01/08 10:53:57;;;;;;;23.75;15.00;;;5.00;99.90;;;;;;5033103;28;20033;-73
2023/01/08 10:56:26;;;;;;;24.00;13.15;;;4.90;99.90;;;;;;5040629;28;20394;-73
2023/01/08 10:58:52;;;;;;;22.70;13.25;;;4.80;99.90;;;;;;5035894;28;20048;-73
2023/01/08 11:01:18;;;;;;;20.08;13.13;;;4.80;99.90;;;;;;5038418;28;20529;-73
2023/01/08 11:03:50;;;;;;;21.80;12.27;;;4.60;99.90;;;;;;5034254;28;20121;-73
2023/01/08 11:06:24;;;;;;;21.45;13.45;;;4.60;99.90;;;;;;5039768;28;20060;-73
2023/01/08 11:08:52;;;;;;;18.90;11.65;;;4.70;99.90;;;;;;5036535;28;20518;-73
2023/01/08 11:11:19;;;;;;;21.67;13.55;;;4.70;99.90;;;;;;5036925;28;20036;-73
2023/01/08 11:13:58;;;;;;;23.00;13.38;;;4.70;99.90;;;;;;5035724;28;20028;-73
2023/01/08 11:16:36;;;;;;;20.50;12.10;;;4.60;99.90;;;;;;5033112;28;20499;-73
2023/01/08 11:19:03;;;;;;;22.52;12.82;;;4.60;99.90;;;;;;5038360;28;20040;-73
2023/01/08 11:21:30;;;;;;;21.15;13.70;;;4.50;99.90;;;;;;5040030;28;20049;-73
2023/01/08 11:24:18;;;;;;;20.73;12.77;;;4.50;99.90;;;;;;5040658;28;20463;-73
2023/01/08 11:27:01;;;;;;;23.27;14.88;;;4.30;99.90;;;;;;5036857;28;20482;-73
2023/01/08 11:29:52;;;;;;;21.83;12.45;;;4.40;99.90;;;;;;5038405;28;20083;-73
2023/01/08 11:32:46;;;;;;;22.88;14.48;;;4.50;99.90;;;;;;5032028;28;20064;-73
2023/01/08 11:35:17;;;;;;;23.80;14.57;;;4.50;99.90;;;;;;5039535;28;20045;-73
2023/01/08 11:37:46;;;;;;;20.40;14.32;;;4.50;99.90;;;;;;5040572;28;20502;-73
2023/01/08 11:40:15;;;;;;;21.52;13.75;;;4.60;99.90;;;;;;5040734;28;20033;-73
2023/01/08 11:42:56;;;;;;;22.15;14.50;;;4.50;99.90;;;;;;5036209;28;20033;-73
2023/01/08 11:45:48;;;;;;;20.63;13.68;;;4.50;99.90;;;;;;5031572;28;20036;-73
2023/01/08 11:48:51;;;;;;;20.90;13.52;;;4.50;99.90;;;;;;5037295;28;20030;-73
2023/01/08 11:51:32;;;;;;;26.90;14.02;;;4.50;99.90;;;;;;5042556;28;20036;-73
2023/01/08 11:54:21;;;;;;;22.17;15.48;;;4.40;99.90;;;;;;5034530;28;20095;-73
2023/01/08 11:57:02;;;;;;;20.48;13.25;;;4.60;99.90;;;;;;5034526;28;20041;-73
2023/01/08 11:59:30;;;;;;;27.40;17.27;;;4.60;99.90;;;;;;5036682;28;20025;-74
2023/01/08 12:02:30;;;;;;;25.20;15.00;;;4.60;99.90;;;;;;5036518;28;20028;-75
2023/01/08 12:05:20;;;;;;;22.77;13.45;;;4.40;99.90;;;;;;5034379;28;20044;-80
2023/01/08 12:08:03;;;;;;;24.10;15.15;;;4.20;99.90;;;;;;5029703;28;20702;-82
2023/01/08 12:10:42;;;;;;;46.17;30.73;;;4.40;99.90;;;;;;5032539;28;20033;-76
2023/01/08 12:13:29;;;;;;;38.90;23.95;;;4.40;99.90;;;;;;5036127;28;20032;-75
2023/01/08 12:16:04;;;;;;;32.30;21.73;;;4.30;99.90;;;;;;5028764;28;20033;-76
2023/01/08 12:19:06;;;;;;;26.88;16.45;;;4.40;99.90;;;;;;5035786;28;20608;-75
2023/01/08 12:21:41;;;;;;;26.25;17.17;;;4.40;99.90;;;;;;5037357;28;20141;-73
2023/01/08 12:24:25;;;;;;;;;;;4.40;99.90;;;;;;5031352;28;20615;-74
2023/01/08 12:27:22;;;;;;;27.30;15.95;;;4.50;99.90;;;;;;5030862;28;19909;-74
2023/01/08 12:30:11;;;;;;;26.63;15.85;;;4.50;99.90;;;;;;5038140;28;20025;-75
2023/01/08 12:32:45;;;;;;;26.88;16.50;;;4.40;99.90;;;;;;4996769;28;20045;-76
2023/01/08 12:35:10;;;;;;;26.60;16.83;;;4.40;99.90;;;;;;5037932;28;20052;-75
2023/01/08 12:37:39;;;;;;;24.15;16.33;;;4.40;99.90;;;;;;5033631;28;20029;-74
2023/01/08 12:40:22;;;;;;;26.88;17.02;;;4.50;99.90;;;;;;5031733;28;20052;-74
2023/01/08 12:42:48;;;;;;;23.27;15.80;;;4.60;99.90;;;;;;5030654;28;20521;-75
2023/01/08 12:45:27;;;;;;;27.52;17.70;;;4.70;99.90;;;;;;5035008;28;20061;-73
2023/01/08 12:48:06;;;;;;;29.85;18.35;;;4.60;99.90;;;;;;5032575;28;20056;-74
2023/01/08 12:50:45;;;;;;;27.02;18.33;;;4.50;99.90;;;;;;5038024;28;20044;-74